LFPV 170830Z AUTO 22008KT 180V250 9999 BKN011 OVC019 08/07 Q1016 BECMG BKN015

ElémentsDécodage
LFPV Station météo située sur l'aérodrome de VILLACOUBLAY Vélizy
170830Z émis le 17 du mois à 08h30 UTC
AUTO Bulletin édité par un automate
22008KT vent du 220°, 08 noeuds
180V250 vent de direction variable entre 180° et 250°
9999 visibilité horizontale supérieure à 10 Km
BKN011 nuages morcelés (5/8 à 7/8) à 1100 pieds
OVC019 couverture nuageuse totale (8/8) à 1900 pieds
08/07 température 08°C, point de rosée 07°C
 soit une humidité relative de 93%
Q1016 la pression au niveau de la mer (QNH) est de 1016 hPa
BECMG fluctuation du temps prévue
BKN015 nuages morcelés (5/8 à 7/8) à 1500 pieds